EDT,Max TemperatureF,Mean TemperatureF,Min TemperatureF,Max Dew PointF,MeanDew PointF,Min DewpointF,Max Humidity, Mean Humidity, Min Humidity, Max Sea Level PressureIn, Mean Sea Level PressureIn, Min Sea Level PressureIn, Max VisibilityMiles, Mean VisibilityMiles, Min VisibilityMiles, Max Wind SpeedMPH, Mean Wind SpeedMPH, Max Gust SpeedMPH,PrecipitationIn, CloudCover, Events, WindDirDegrees
2012-9-1,82,76,71,75,72,70,100,88,66,30.22,30.17,30.13,10,9,1,12,1,,0.00,1,Rain,217
2012-9-2,87,78,68,73,70,66,100,85,55,30.14,30.06,29.98,10,8,0,13,1,20,0.23,3,Fog-Rain,85
2012-9-3,84,76,68,73,70,66,100,86,55,30.05,30.01,29.98,10,8,0,6,0,,0.11,1,Rain,220
2012-9-4,84,76,69,73,71,68,100,89,62,30.02,29.97,29.91,10,7,0,13,1,20,0.01,2,Fog-Rain,220
2012-9-5,84,76,69,73,70,64,100,80,51,29.96,29.92,29.89,10,8,0,7,1,,0.63,3,Fog-Rain,254
2012-9-6,84,76,69,72,69,64,100,83,51,30.02,29.97,29.91,10,9,4,9,1,,0.00,1,,216
2012-9-7,84,75,66,70,66,63,100,80,48,30.04,29.98,29.85,10,8,1,8,1,,0.00,1,,228
2012-9-8,75,65,53,66,62,54,100,89,65,29.95,29.82,29.72,10,9,1,14,7,20,0.54,4,Rain,224
2012-9-9,68,59,50,57,52,46,100,82,46,30.08,29.99,29.92,10,8,0,8,1,,0.00,3,Fog,272
2012-9-10,66,57,48,57,49,45,100,80,46,30.25,30.18,30.08,10,8,0,10,1,,0.00,3,Fog,1
2012-9-11,73,58,44,55,48,45,100,74,38,30.35,30.30,30.25,10,10,10,7,0,,0.00,0,,175
2012-9-12,78,64,51,63,55,52,100,76,44,30.38,30.33,30.30,10,10,10,5,0,,0.00,0,,202
2012-9-13,78,66,53,63,59,54,100,80,47,30.40,30.33,30.27,10,10,4,6,0,,0.00,0,,17
2012-9-14,80,68,55,64,57,52,100,77,39,30.31,30.26,30.20,10,10,4,15,2,20,0.08,2,Rain,246
2012-9-15,69,60,51,61,51,43,100,76,40,30.34,30.27,30.21,10,10,10,10,3,,0.00,1,,18
2012-9-16,71,60,48,54,50,43,100,79,38,30.22,30.16,30.10,10,10,7,5,0,,0.00,0,,20
2012-9-17,77,62,48,64,56,48,100,82,47,30.12,30.03,29.91,10,10,3,23,1,,0.05,1,Rain,205
2012-9-18,64,58,53,64,62,54,100,100,100,29.96,29.77,29.65,10,6,0,13,3,24,1.78,7,Fog-Rain,236
2012-9-19,62,53,44,54,43,34,100,74,36,30.19,30.13,29.96,10,9,0,12,1,16,0.00,2,Fog,345
2012-9-20,73,58,42,55,48,43,100,75,38,30.16,30.09,30.03,10,10,4,14,2,18,0.00,0,,214
2012-9-21,73,64,55,57,55,54,100,73,50,30.08,30.02,29.90,10,10,10,14,2,18,0.00,1,,209
2012-9-22,73,60,48,57,51,34,73,59,45,30.13,29.93,29.86,10,10,10,24,9,32,0.00,3,,235
2012-9-23,59,48,37,46,39,34,100,74,42,30.23,30.19,30.13,10,10,8,10,1,,0.00,3,,287
2012-9-24,60,50,39,46,39,34,100,72,36,30.31,30.22,30.14,10,9,0,13,1,,0.00,1,Fog,233
2012-9-25,66,52,39,55,46,37,100,80,45,30.19,30.14,30.07,10,10,10,20,2,28,0.00,2,,200
2012-9-26,75,67,59,63,59,55,100,79,53,30.21,30.15,30.09,10,9,0,18,6,29,0.81,3,Rain,221
2012-9-27,73,66,60,64,62,61,100,90,65,30.22,30.18,30.12,10,8,0,18,1,29,0.57,3,Fog-Rain,210
2012-9-28,62,56,51,63,59,52,100,99,88,30.15,30.12,30.08,10,7,0,4,0,,0.03,5,Fog-Rain,357
2012-9-29,62,54,46,52,47,43,100,84,48,30.10,30.04,29.98,10,6,0,9,1,,0.00,4,Fog,10
2012-9-30,66,55,44,50,47,45,100,81,46,29.98,29.92,29.85,10,9,0,12,2,18,0.00,1,Fog,240